Ormskirk, United Kingdom
Current Conditions -  °F | °C
As of 3:50 PM on Friday 19 Dec 2014 (Local Time) from EGNO Reporting Station
Broken Clouds Broken Clouds  
Wind Chill: 39°   Ceiling: 3500
Heat Index: 46°   Visibility: 6mi
Dew Point: 37°   Wind: 22mph
Humidity: 71%   Direction: 270°W
Pressure: 29.94"   Gusts: NA
Location:  53.57°N, 2.89°W
Report Text: EGNO 191550Z 27019KT 9999 FEW008 BKN035 08/03 Q1014
Loading
Personal Weather Stations






























Interactive Weather Map New forecast layout! Learn more

10-Day Weather Forecast

Advertisements
Track Severe Weather on mobile